createdAt,value
2023-04-01T00:00:00.592Z,94754.59
2023-04-01T00:01:06.141Z,94749.44
2023-04-01T00:02:08.355Z,94751.19
2023-04-01T00:03:13.083Z,94750.47
2023-04-01T00:04:17.904Z,94747.25
2023-04-01T00:05:20.244Z,94745.50
2023-04-01T00:06:24.854Z,94742.25
2023-04-01T00:07:30.731Z,94754.06
2023-04-01T00:08:36.041Z,94753.78
2023-04-01T00:09:38.525Z,94754.69
2023-04-01T00:10:43.341Z,94746.13
2023-04-01T00:11:46.531Z,94752.41
2023-04-01T00:12:51.364Z,94746.22
2023-04-01T00:13:53.418Z,94736.16
2023-04-01T00:14:57.994Z,94749.81
2023-04-01T00:16:00.402Z,94752.97
2023-04-01T00:17:05.216Z,94747.97
2023-04-01T00:18:07.519Z,94748.53
2023-04-01T00:19:12.168Z,94743.53
2023-04-01T00:20:15.595Z,94745.31
2023-04-01T00:21:21.585Z,94746.13
2023-04-01T00:22:23.683Z,94747.25
2023-04-01T00:23:31.098Z,94741.97
2023-04-01T00:24:33.136Z,94748.16
2023-04-01T00:25:37.708Z,94737.66
2023-04-01T00:26:39.760Z,94745.22
2023-04-01T00:27:44.397Z,94747.81
2023-04-01T00:28:47.117Z,94748.31
2023-04-01T00:29:51.707Z,94738.75
2023-04-01T00:30:53.788Z,94745.56
2023-04-01T00:31:58.359Z,94743.72
2023-04-01T00:33:00.463Z,94739.94
2023-04-01T00:34:05.164Z,94736.81
2023-04-01T00:35:07.913Z,94738.75
2023-04-01T00:36:15.686Z,94740.97
2023-04-01T00:37:17.819Z,94749.53
2023-04-01T00:38:22.965Z,94747.88
2023-04-01T00:39:29.963Z,94739.69
2023-04-01T00:40:37.073Z,94731.38
2023-04-01T00:41:39.144Z,94744.38
2023-04-01T00:42:43.726Z,94734.03
2023-04-01T00:43:50.948Z,94745.22
2023-04-01T00:44:55.133Z,94737.19
2023-04-01T00:46:00.124Z,94741.50
2023-04-01T00:47:02.520Z,94730.56
2023-04-01T00:48:12.707Z,94739.88
2023-04-01T00:49:17.540Z,94734.72
2023-04-01T00:50:22.649Z,94737.38
2023-04-01T00:52:48.731Z,94732.22
2023-04-01T00:54:06.830Z,94731.13
2023-04-01T00:55:17.531Z,94718.22
2023-04-01T00:56:32.739Z,94736.16
2023-04-01T00:57:45.068Z,94726.84
2023-04-01T00:58:56.566Z,94734.53
2023-04-01T01:00:01.545Z,94726.84
2023-04-01T01:01:14.494Z,94735.53
2023-04-01T01:02:32.973Z,94731.19
2023-04-01T01:03:38.722Z,94733.13
2023-04-01T01:04:44.762Z,94733.03
2023-04-01T01:06:09.791Z,94733.22
2023-04-01T01:07:24.398Z,94733.22
2023-04-01T01:08:44.867Z,94736.53
2023-04-01T01:09:58.859Z,94735.63
2023-04-01T01:11:10.378Z,94724.78
2023-04-01T01:12:19.077Z,94732.03
2023-04-01T01:13:30.416Z,94729.34
2023-04-01T01:14:56.543Z,94739.38
2023-04-01T01:16:07.349Z,94737.66
2023-04-01T01:17:22.878Z,94731.75
2023-04-01T01:18:36.021Z,94729.34
2023-04-01T01:20:23.042Z,94731.13
2023-04-01T01:22:22.073Z,94733.50
2023-04-01T01:23:56.149Z,94726.47
2023-04-01T01:25:31.656Z,94728.63
2023-04-01T01:26:54.045Z,94740.69
2023-04-01T01:28:09.432Z,94727.16
2023-04-01T01:29:31.749Z,94728.44
2023-04-01T01:30:45.035Z,94729.06
2023-04-01T01:31:57.253Z,94721.53
2023-04-01T01:35:22.470Z,94733.78
2023-04-01T01:36:36.912Z,94737.94
2023-04-01T01:37:43.548Z,94732.13
2023-04-01T01:38:50.572Z,94737.13
2023-04-01T01:39:59.020Z,94730.28
2023-04-01T01:41:08.021Z,94723.28
2023-04-01T01:42:16.502Z,94731.94
2023-04-01T01:43:28.690Z,94727.81
2023-04-01T01:44:36.262Z,94732.22
2023-04-01T01:45:48.508Z,94718.88
2023-04-01T01:46:53.046Z,94723.22
2023-04-01T01:48:02.682Z,94730.84
2023-04-01T01:49:10.189Z,94722.34
2023-04-01T01:50:20.797Z,94728.50
2023-04-01T01:51:28.081Z,94726.09
2023-04-01T01:52:31.341Z,94722.88
2023-04-01T01:53:38.061Z,94723.81
2023-04-01T01:54:50.556Z,94729.53
2023-04-01T01:55:57.713Z,94721.97
2023-04-01T01:57:08.066Z,94729.81
2023-04-01T01:58:19.138Z,94727.84
2023-04-01T01:59:26.422Z,94724.38
2023-04-01T02:00:33.271Z,94724.19
2023-04-01T02:01:46.099Z,94725.19
2023-04-01T02:02:51.542Z,94714.22
2023-04-01T02:03:59.437Z,94732.94
2023-04-01T02:05:05.553Z,94712.19
2023-04-01T02:06:18.716Z,94724.19
2023-04-01T02:07:27.869Z,94719.22
2023-04-01T02:08:40.421Z,94720.94
2023-04-01T02:09:45.159Z,94727.84
2023-04-01T02:11:01.002Z,94716.53
2023-04-01T02:12:08.228Z,94713.41
2023-04-01T02:13:21.873Z,94733.00
2023-04-01T02:14:28.856Z,94721.50
2023-04-01T02:15:39.319Z,94729.69
2023-04-01T02:16:50.272Z,94727.41
2023-04-01T02:18:28.893Z,94719.19
2023-04-01T02:19:39.273Z,94737.22
2023-04-01T02:20:47.220Z,94725.47
2023-04-01T02:22:00.238Z,94726.66
2023-04-01T02:23:09.649Z,94726.66
2023-04-01T02:24:19.360Z,94733.56
2023-04-01T02:25:28.465Z,94734.66
2023-04-01T02:26:35.960Z,94733.19
2023-04-01T02:27:40.629Z,94733.94
2023-04-01T02:28:50.715Z,94736.50
2023-04-01T02:29:55.026Z,94723.06
2023-04-01T02:31:05.449Z,94740.53
2023-04-01T02:32:10.715Z,94731.88
2023-04-01T02:33:17.529Z,94732.88
2023-04-01T02:34:22.114Z,94749.25
2023-04-01T02:35:30.342Z,94737.19
2023-04-01T02:36:37.329Z,94742.34
2023-04-01T02:37:50.214Z,94734.81
2023-04-01T02:38:57.055Z,94744.03
2023-04-01T02:40:05.182Z,94741.53
2023-04-01T02:41:09.445Z,94740.88
2023-04-01T02:42:16.876Z,94741.06
2023-04-01T02:43:21.457Z,94750.44
2023-04-01T02:45:02.700Z,94744.28
2023-04-01T02:46:07.055Z,94742.53
2023-04-01T02:47:13.977Z,94738.22
2023-04-01T02:48:19.154Z,94745.13
2023-04-01T02:49:26.402Z,94742.53
2023-04-01T02:50:31.456Z,94744.19
2023-04-01T02:51:38.607Z,94730.59
2023-04-01T02:54:38.444Z,94746.03
2023-04-01T02:55:40.530Z,94741.59
2023-04-01T02:56:45.203Z,94739.97
2023-04-01T02:57:47.162Z,94747.88
2023-04-01T02:58:51.940Z,94751.19
2023-04-01T02:59:53.944Z,94741.72
2023-04-01T03:00:58.581Z,94746.03
2023-04-01T03:02:00.782Z,94744.66
2023-04-01T03:03:05.989Z,94738.81
2023-04-01T03:04:08.136Z,94743.72
2023-04-01T03:05:13.751Z,94744.72
2023-04-01T03:06:17.503Z,94750.81
2023-04-01T03:07:22.064Z,94752.38
2023-04-01T03:08:24.063Z,94742.97
2023-04-01T03:09:29.452Z,94738.75
2023-04-01T03:10:34.180Z,94754.19
2023-04-01T03:11:38.771Z,94741.91
2023-04-01T03:12:41.136Z,94742.72
2023-04-01T03:13:45.726Z,94741.78
2023-04-01T03:14:47.758Z,94741.91
2023-04-01T03:15:52.423Z,94757.34
2023-04-01T03:16:54.620Z,94744.53
2023-04-01T03:17:59.441Z,94754.19
2023-04-01T03:19:03.111Z,94740.41
2023-04-01T03:20:09.620Z,94751.56
2023-04-01T03:21:19.582Z,94745.38
2023-04-01T03:22:24.221Z,94741.06
2023-04-01T03:23:26.339Z,94739.56
2023-04-01T03:24:30.957Z,94751.56
2023-04-01T03:25:35.797Z,94740.69
2023-04-01T03:26:40.418Z,94747.66
2023-04-01T03:28:30.355Z,94740.94
2023-04-01T03:29:35.109Z,94746.25
2023-04-01T03:30:37.279Z,94741.19
2023-04-01T03:31:41.941Z,94754.06
2023-04-01T03:32:43.976Z,94747.09
2023-04-01T03:33:48.639Z,94742.69
2023-04-01T03:34:50.654Z,94746.91
2023-04-01T03:35:55.893Z,94752.81
2023-04-01T03:37:00.797Z,94740.84
2023-04-01T03:38:02.953Z,94752.63
2023-04-01T03:39:07.710Z,94758.53
2023-04-01T03:40:11.346Z,94742.91
2023-04-01T03:41:20.151Z,94743.06
2023-04-01T03:42:22.276Z,94750.63
2023-04-01T03:43:27.509Z,94745.47
2023-04-01T03:44:32.229Z,94754.84
2023-04-01T03:45:36.864Z,94740.31
2023-04-01T03:46:39.253Z,94744.53
2023-04-01T03:47:43.942Z,94741.25
2023-04-01T03:48:45.981Z,94746.47
2023-04-01T03:49:50.559Z,94748.47
2023-04-01T03:50:52.822Z,94745.25
2023-04-01T03:51:57.469Z,94746.91
2023-04-01T03:52:59.535Z,94744.34
2023-04-01T03:54:04.167Z,94751.16
2023-04-01T03:55:07.199Z,94746.09
2023-04-01T03:56:12.741Z,94757.22
2023-04-01T03:57:19.974Z,94755.47
2023-04-01T03:58:21.990Z,94746.09
2023-04-01T03:59:26.570Z,94744.50
2023-04-01T04:00:28.620Z,94754.06
2023-04-01T04:01:33.375Z,94757.00
2023-04-01T04:02:36.757Z,94754.25
2023-04-01T04:03:41.589Z,94755.91
2023-04-01T04:04:43.941Z,94756.81
2023-04-01T04:05:51.631Z,94757.63
2023-04-01T04:06:53.650Z,94761.72
2023-04-01T04:07:59.090Z,94749.75
2023-04-01T04:09:01.118Z,94744.75
2023-04-01T04:10:06.024Z,94741.28
2023-04-01T04:11:08.191Z,94742.13
2023-04-01T04:12:12.792Z,94743.22
2023-04-01T04:13:17.381Z,94750.59
2023-04-01T04:14:22.069Z,94745.50
2023-04-01T04:15:24.446Z,94747.19
2023-04-01T04:16:29.428Z,94747.25
2023-04-01T04:17:31.658Z,94748.38
2023-04-01T04:18:36.564Z,94739.78
2023-04-01T04:19:38.652Z,94746.78
2023-04-01T04:20:48.283Z,94741.06
2023-04-01T04:21:52.911Z,94738.00
2023-04-01T04:22:54.933Z,94733.94
2023-04-01T04:23:59.706Z,94742.66
2023-04-01T04:25:01.857Z,94726.22
2023-04-01T04:26:08.780Z,94726.22
2023-04-01T04:27:10.939Z,94736.03
2023-04-01T04:28:15.635Z,94738.69
2023-04-01T04:29:20.522Z,94731.06
2023-04-01T04:30:25.163Z,94735.19
2023-04-01T04:31:30.207Z,94741.84
2023-04-01T04:32:32.298Z,94724.00
2023-04-01T04:33:38.069Z,94728.22
2023-04-01T04:34:40.235Z,94738.50
2023-04-01T04:35:44.944Z,94736.88
2023-04-01T04:36:47.021Z,94735.19
2023-04-01T04:37:51.667Z,94731.06
2023-04-01T04:38:53.754Z,94741.25
2023-04-01T04:39:58.355Z,94742.19
2023-04-01T04:41:00.426Z,94739.44
2023-04-01T04:42:05.078Z,94740.34
2023-04-01T04:43:07.585Z,94729.31
2023-04-01T04:44:12.247Z,94740.03
2023-04-01T04:45:17.113Z,94738.34
2023-04-01T04:46:22.620Z,94736.03
2023-04-01T04:47:24.684Z,94739.50
2023-04-01T04:48:29.326Z,94742.03
2023-04-01T04:49:31.478Z,94739.50
2023-04-01T04:50:36.396Z,94743.50
2023-04-01T04:51:41.103Z,94748.63
2023-04-01T04:52:43.126Z,94746.06
2023-04-01T04:53:49.599Z,94740.03
2023-04-01T04:54:52.778Z,94746.06
2023-04-01T04:55:57.428Z,94745.34
2023-04-01T04:56:59.465Z,94742.50
2023-04-01T04:58:04.100Z,94750.31
2023-04-01T04:59:07.644Z,94744.50
2023-04-01T05:00:14.116Z,94743.50
2023-04-01T05:01:19.599Z,94742.66
2023-04-01T05:02:24.343Z,94745.88
2023-04-01T05:03:26.669Z,94741.50
2023-04-01T05:04:31.379Z,94750.31
2023-04-01T05:05:33.779Z,94751.63
2023-04-01T05:06:38.556Z,94754.13
2023-04-01T05:07:40.597Z,94746.75
2023-04-01T05:08:45.626Z,94743.00
2023-04-01T05:09:48.203Z,94749.78
2023-04-01T05:10:52.899Z,94746.28
2023-04-01T05:11:54.972Z,94744.25
2023-04-01T05:12:59.616Z,94748.28
2023-04-01T05:14:01.665Z,94750.78
2023-04-01T05:15:07.718Z,94752.19
2023-04-01T05:16:10.704Z,94765.13
2023-04-01T05:17:17.973Z,94741.13
2023-04-01T05:18:47.067Z,94747.97
2023-04-01T05:19:49.097Z,94730.13
2023-04-01T05:20:55.646Z,94748.69
2023-04-01T05:21:57.699Z,94744.28
2023-04-01T05:23:03.552Z,94746.03
2023-04-01T05:24:11.465Z,94745.88
2023-04-01T05:25:13.518Z,94735.56
2023-04-01T05:26:18.659Z,94744.28
2023-04-01T05:27:20.789Z,94741.06
2023-04-01T05:28:25.432Z,94743.53
2023-04-01T05:29:27.989Z,94747.69
2023-04-01T05:30:32.613Z,94733.00
2023-04-01T05:31:34.673Z,94744.88
2023-04-01T05:32:41.954Z,94742.38
2023-04-01T05:33:44.049Z,94740.78
2023-04-01T05:34:48.836Z,94739.78
2023-04-01T05:35:51.026Z,94741.38
2023-04-01T05:36:55.766Z,94731.16
2023-04-01T05:37:57.856Z,94741.94
2023-04-01T05:39:02.524Z,94738.28
2023-04-01T05:40:06.338Z,94733.97
2023-04-01T05:41:11.088Z,94734.84
2023-04-01T05:42:13.166Z,94734.78
2023-04-01T05:43:17.807Z,94733.84
2023-04-01T05:44:19.849Z,94744.53
2023-04-01T05:45:25.129Z,94726.69
2023-04-01T05:46:29.807Z,94741.16
2023-04-01T05:47:31.923Z,94735.63
2023-04-01T05:48:39.561Z,94730.59
2023-04-01T05:49:41.606Z,94732.03
2023-04-01T05:50:46.264Z,94723.75
2023-04-01T05:51:48.313Z,94730.41
2023-04-01T05:52:52.945Z,94731.03
2023-04-01T05:53:55.004Z,94737.03
2023-04-01T05:55:00.946Z,94735.25
2023-04-01T05:56:04.544Z,94741.16
2023-04-01T05:57:09.271Z,94740.53
2023-04-01T05:58:11.381Z,94734.72
2023-04-01T05:59:16.260Z,94731.78
2023-04-01T06:00:21.092Z,94734.19
2023-04-01T06:01:25.818Z,94737.41
2023-04-01T06:02:28.502Z,94732.25
2023-04-01T06:03:33.451Z,94740.81
2023-04-01T06:04:40.310Z,94730.03
2023-04-01T06:06:30.900Z,94731.50
2023-04-01T06:07:35.576Z,94734.19
2023-04-01T06:08:37.644Z,94731.50
2023-04-01T06:09:42.720Z,94740.81
2023-04-01T06:11:04.231Z,94743.13
2023-04-01T06:12:33.492Z,94735.75
2023-04-01T06:13:51.480Z,94741.00
2023-04-01T06:15:01.996Z,94734.09
2023-04-01T06:16:13.311Z,94738.34
2023-04-01T06:17:30.222Z,94738.16
2023-04-01T06:18:53.679Z,94730.41
2023-04-01T06:20:07.689Z,94723.50
2023-04-01T06:21:27.151Z,94726.84
2023-04-01T06:22:56.849Z,94741.13
2023-04-01T06:24:09.066Z,94730.44
2023-04-01T06:25:29.570Z,94733.19
2023-04-01T06:26:56.793Z,94727.94
2023-04-01T06:28:16.592Z,94734.84
2023-04-01T06:29:45.864Z,94741.50
2023-04-01T06:34:06.585Z,94729.69
2023-04-01T06:35:26.162Z,94725.09
2023-04-01T06:37:06.930Z,94723.06
2023-04-01T06:40:25.519Z,94727.84
2023-04-01T06:42:11.571Z,94718.78
2023-04-01T06:43:30.497Z,94722.91
2023-04-01T06:44:46.990Z,94710.03
2023-04-01T06:46:01.190Z,94724.94
2023-04-01T06:50:28.720Z,94717.19
2023-04-01T06:51:41.676Z,94716.00
2023-04-01T06:52:57.604Z,94720.69
2023-04-01T06:54:07.039Z,94721.63
2023-04-01T06:55:28.930Z,94709.63
2023-04-01T06:56:31.558Z,94731.47
2023-04-01T06:57:44.634Z,94715.34
2023-04-01T06:58:53.162Z,94712.31
2023-04-01T07:00:01.295Z,94717.19
2023-04-01T07:01:10.043Z,94714.25
2023-04-01T07:02:25.759Z,94712.47
2023-04-01T07:03:35.993Z,94719.03
2023-04-01T07:04:44.483Z,94724.91
2023-04-01T07:05:49.546Z,94719.38
2023-04-01T07:06:55.210Z,94718.34
2023-04-01T07:08:06.935Z,94720.00
2023-04-01T07:09:12.068Z,94716.22
2023-04-01T07:10:21.777Z,94713.81
2023-04-01T07:11:30.781Z,94723.06
2023-04-01T07:12:45.759Z,94719.88
2023-04-01T07:13:52.565Z,94716.56
2023-04-01T07:14:58.712Z,94723.28
2023-04-01T07:16:13.688Z,94706.22
2023-04-01T07:17:21.671Z,94715.94
2023-04-01T07:18:34.096Z,94708.53
2023-04-01T07:19:46.231Z,94714.31
2023-04-01T07:20:48.484Z,94713.94
2023-04-01T07:21:56.554Z,94714.94
2023-04-01T07:23:03.750Z,94720.31
2023-04-01T07:24:13.271Z,94699.84
2023-04-01T07:25:18.326Z,94711.59
2023-04-01T07:26:26.707Z,94715.75
2023-04-01T07:27:29.638Z,94713.94
2023-04-01T07:28:37.074Z,94704.44
2023-04-01T07:29:42.468Z,94706.31
2023-04-01T07:30:54.302Z,94710.19
2023-04-01T07:32:29.740Z,94710.81
2023-04-01T07:33:43.212Z,94706.97
2023-04-01T07:35:10.344Z,94710.66
2023-04-01T07:36:22.932Z,94723.38
2023-04-01T07:37:32.668Z,94723.38
2023-04-01T07:38:53.599Z,94705.97
2023-04-01T07:40:05.734Z,94704.00
2023-04-01T07:41:17.644Z,94709.56
2023-04-01T07:42:35.398Z,94723.91
2023-04-01T07:43:53.877Z,94716.16
2023-04-01T07:45:07.050Z,94713.09
2023-04-01T07:46:23.319Z,94704.94
2023-04-01T07:47:43.754Z,94715.25
2023-04-01T07:48:57.884Z,94715.41
2023-04-01T07:50:10.233Z,94718.06
2023-04-01T07:51:21.618Z,94726.44
2023-04-01T07:52:30.814Z,94729.97
2023-04-01T07:53:44.676Z,94730.91
2023-04-01T07:54:53.795Z,94727.72
2023-04-01T07:56:06.947Z,94724.53
2023-04-01T07:57:20.367Z,94713.50
2023-04-01T07:58:34.491Z,94735.53
2023-04-01T07:59:46.073Z,94714.94
2023-04-01T08:00:54.486Z,94716.44
2023-04-01T08:02:07.153Z,94717.66
2023-04-01T08:03:24.482Z,94720.03
2023-04-01T08:04:52.925Z,94718.06
2023-04-01T08:06:01.335Z,94721.81
2023-04-01T08:07:13.265Z,94709.44
2023-04-01T08:08:26.329Z,94724.72
2023-04-01T08:09:41.461Z,94724.53
2023-04-01T08:10:54.965Z,94726.75
2023-04-01T08:12:12.407Z,94718.19
2023-04-01T08:13:25.290Z,94699.66
2023-04-01T08:14:37.526Z,94711.81
2023-04-01T08:15:53.266Z,94726.09
2023-04-01T08:17:06.376Z,94712.47
2023-04-01T08:18:23.525Z,94702.78
2023-04-01T08:19:42.722Z,94727.78
2023-04-01T08:20:54.354Z,94709.25
2023-04-01T08:21:58.851Z,94716.56
2023-04-01T08:23:10.780Z,94725.25
2023-04-01T08:24:29.761Z,94713.03
2023-04-01T08:25:44.011Z,94719.13
2023-04-01T08:26:51.651Z,94728.22
2023-04-01T08:28:03.905Z,94718.78
2023-04-01T08:29:15.572Z,94718.06
2023-04-01T08:30:19.439Z,94725.28
2023-04-01T08:31:29.782Z,94738.38
2023-04-01T08:32:38.311Z,94730.94
2023-04-01T08:33:46.003Z,94717.88
2023-04-01T08:34:57.204Z,94728.72
2023-04-01T08:36:09.647Z,94708.88
2023-04-01T08:37:18.934Z,94726.22
2023-04-01T08:38:28.904Z,94726.94
2023-04-01T08:39:36.896Z,94725.28
2023-04-01T08:42:31.154Z,94728.03
2023-04-01T08:44:07.079Z,94729.34
2023-04-01T08:45:34.327Z,94725.28
2023-04-01T08:47:12.269Z,94717.75
2023-04-01T08:48:49.490Z,94728.25
2023-04-01T08:50:14.786Z,94725.59
2023-04-01T08:51:54.672Z,94729.00
2023-04-01T08:53:07.575Z,94731.56
2023-04-01T08:54:43.894Z,94731.75
2023-04-01T08:55:53.941Z,94725.69
2023-04-01T08:57:08.170Z,94730.63
2023-04-01T08:58:42.204Z,94723.09
2023-04-01T08:59:58.763Z,94710.81
2023-04-01T09:01:21.720Z,94731.38
2023-04-01T09:03:05.012Z,94724.47
2023-04-01T09:04:28.998Z,94703.56
2023-04-01T09:06:06.450Z,94733.50
2023-04-01T09:07:38.860Z,94736.91
2023-04-01T09:08:59.720Z,94735.97
2023-04-01T09:10:46.122Z,94728.97
2023-04-01T09:12:11.881Z,94735.41
2023-04-01T09:13:55.640Z,94727.59
2023-04-01T09:15:34.557Z,94736.16
2023-04-01T09:17:12.754Z,94722.28
2023-04-01T09:18:43.267Z,94750.38
2023-04-01T09:20:05.988Z,94737.66
2023-04-01T09:21:38.462Z,94745.56
2023-04-01T09:22:49.701Z,94760.22
2023-04-01T09:24:27.361Z,94754.03
2023-04-01T09:25:55.424Z,94747.63
2023-04-01T09:27:09.157Z,94749.25
2023-04-01T09:28:20.179Z,94747.81
2023-04-01T09:29:54.245Z,94744.66
2023-04-01T09:31:22.403Z,94743.00
2023-04-01T09:34:58.100Z,94746.91
2023-04-01T09:36:08.984Z,94752.56
2023-04-01T09:37:23.004Z,94743.72
2023-04-01T09:38:33.858Z,94754.78
2023-04-01T09:39:38.192Z,94757.00
2023-04-01T09:40:57.487Z,94751.09
2023-04-01T09:42:21.997Z,94751.03
2023-04-01T09:43:30.922Z,94752.84
2023-04-01T09:44:37.971Z,94754.06
2023-04-01T09:45:52.441Z,94758.66
2023-04-01T09:47:10.820Z,94762.34
2023-04-01T09:48:37.952Z,94749.44
2023-04-01T09:49:59.830Z,94759.44
2023-04-01T09:51:16.051Z,94763.63
2023-04-01T09:52:32.724Z,94760.97
2023-04-01T09:53:51.905Z,94754.19
2023-04-01T09:55:10.447Z,94759.53
2023-04-01T09:56:53.610Z,94755.81
2023-04-01T09:58:27.147Z,94763.28
2023-04-01T10:03:06.525Z,94761.13
2023-04-01T10:04:51.321Z,94757.06
2023-04-01T10:08:33.854Z,94750.56
2023-04-01T10:10:08.180Z,94748.88
2023-04-01T10:12:12.685Z,94751.84
2023-04-01T10:13:49.023Z,94760.69
2023-04-01T10:15:33.961Z,94746.41
2023-04-01T10:18:44.923Z,94755.72
2023-04-01T10:20:23.028Z,94748.16
2023-04-01T10:21:54.042Z,94751.84
2023-04-01T10:23:23.970Z,94756.44
2023-04-01T10:24:59.838Z,94744.28
2023-04-01T10:26:27.569Z,94750.56
2023-04-01T10:27:58.266Z,94758.47
2023-04-01T10:29:33.572Z,94758.94
2023-04-01T10:31:08.769Z,94757.53
2023-04-01T10:32:36.832Z,94753.66
2023-04-01T10:34:15.786Z,94755.78
2023-04-01T10:35:57.210Z,94748.44
2023-04-01T10:37:17.738Z,94755.41
2023-04-01T10:51:02.384Z,94750.69
2023-04-01T10:52:37.957Z,94759.06
2023-04-01T10:54:06.790Z,94759.72
2023-04-01T10:55:32.175Z,94755.47
2023-04-01T10:56:53.877Z,94755.50
2023-04-01T10:58:45.237Z,94760.84
2023-04-01T11:00:20.405Z,94756.63
2023-04-01T11:02:11.390Z,94757.63
2023-04-01T11:03:28.996Z,94766.56
2023-04-01T11:05:23.481Z,94764.00
2023-04-01T11:07:15.471Z,94748.88
2023-04-01T11:08:51.360Z,94749.06
2023-04-01T11:10:30.999Z,94758.47
2023-04-01T11:12:08.133Z,94765.00
2023-04-01T11:13:37.227Z,94765.00
2023-04-01T11:15:28.736Z,94758.75
2023-04-01T11:17:00.295Z,94761.97
2023-04-01T11:18:36.982Z,94757.09
2023-04-01T11:20:26.249Z,94762.16
2023-04-01T11:22:06.728Z,94773.03
2023-04-01T11:23:30.063Z,94753.84
2023-04-01T11:25:07.851Z,94769.81
2023-04-01T11:26:27.511Z,94766.03
2023-04-01T11:28:01.792Z,94766.94
2023-04-01T11:29:56.615Z,94769.34
2023-04-01T11:31:26.592Z,94772.03
2023-04-01T11:32:52.917Z,94774.69
2023-04-01T11:34:07.489Z,94780.47
2023-04-01T11:35:42.200Z,94772.66
2023-04-01T11:37:01.072Z,94785.28
2023-04-01T11:38:19.176Z,94785.63
2023-04-01T11:39:32.532Z,94788.13
2023-04-01T11:40:45.315Z,94780.22
2023-04-01T11:42:03.284Z,94779.47
2023-04-01T11:43:30.072Z,94788.22
2023-04-01T11:44:44.071Z,94782.34
2023-04-01T11:45:55.767Z,94783.91
2023-04-01T11:47:27.670Z,94781.84
2023-04-01T11:49:08.598Z,94777.00
2023-04-01T11:50:27.031Z,94784.63
2023-04-01T11:51:55.844Z,94787.19
2023-04-01T11:53:28.321Z,94786.13
2023-04-01T11:54:50.463Z,94784.28
2023-04-01T11:56:20.281Z,94792.53
2023-04-01T11:57:48.334Z,94785.19
2023-04-01T11:59:27.562Z,94793.22
2023-04-01T12:00:56.522Z,94786.09
2023-04-01T12:02:14.268Z,94781.03
2023-04-01T12:03:37.964Z,94793.09
2023-04-01T12:05:08.511Z,94791.81
2023-04-01T12:06:21.484Z,94788.56
2023-04-01T12:07:38.508Z,94792.53
2023-04-01T12:08:54.676Z,94790.81
2023-04-01T12:10:07.152Z,94785.47
2023-04-01T12:14:04.179Z,94785.31
2023-04-01T12:16:07.930Z,94793.84
2023-04-01T12:17:42.399Z,94791.06
2023-04-01T12:19:25.744Z,94798.22
2023-04-01T12:21:04.436Z,94792.16
2023-04-01T12:22:51.330Z,94802.19
2023-04-01T12:24:45.561Z,94793.41
2023-04-01T12:26:26.880Z,94815.19
2023-04-01T12:28:09.759Z,94800.28
2023-04-01T12:30:10.572Z,94794.81
2023-04-01T12:31:59.392Z,94792.53
2023-04-01T12:35:32.421Z,94800.91
2023-04-01T12:37:12.086Z,94798.16
2023-04-01T12:38:51.500Z,94791.03
2023-04-01T12:40:39.145Z,94799.16
2023-04-01T12:44:34.797Z,94800.66
2023-04-01T12:46:15.461Z,94808.72
2023-04-01T12:48:08.510Z,94809.94
2023-04-01T12:50:09.954Z,94799.16
2023-04-01T12:52:02.216Z,94807.06
2023-04-01T12:54:02.397Z,94795.09
2023-04-01T12:55:52.082Z,94802.25
2023-04-01T12:57:47.409Z,94797.91
2023-04-01T12:59:35.812Z,94801.72
2023-04-01T13:01:04.729Z,94797.09
2023-04-01T13:02:38.659Z,94800.69
2023-04-01T13:04:22.294Z,94800.50
2023-04-01T13:06:23.002Z,94810.09
2023-04-01T13:12:04.573Z,94803.91
2023-04-01T13:18:03.427Z,94808.13
2023-04-01T13:20:05.540Z,94808.31
2023-04-01T13:23:40.190Z,94810.16
2023-04-01T13:25:07.941Z,94805.59
2023-04-01T13:28:54.741Z,94813.69
2023-04-01T13:30:52.873Z,94814.94
2023-04-01T13:32:45.295Z,94813.69
2023-04-01T13:34:32.811Z,94811.09
2023-04-01T13:36:12.544Z,94817.75
2023-04-01T13:38:14.398Z,94811.50
2023-04-01T13:40:12.894Z,94826.78
2023-04-01T13:42:11.921Z,94821.09
2023-04-01T13:43:40.339Z,94815.09
2023-04-01T13:45:19.926Z,94821.31
2023-04-01T13:47:14.202Z,94822.19
2023-04-01T13:49:03.314Z,94819.63
2023-04-01T13:50:51.651Z,94825.16
2023-04-01T13:52:58.389Z,94817.34
2023-04-01T13:54:55.824Z,94827.38
2023-04-01T13:56:25.624Z,94832.16
2023-04-01T13:58:01.528Z,94829.03
2023-04-01T14:01:47.754Z,94852.72
2023-04-01T14:03:44.291Z,94850.97
2023-04-01T14:11:39.846Z,94842.13
2023-04-01T14:13:47.285Z,94843.88
2023-04-01T14:15:22.294Z,94852.38
2023-04-01T14:17:52.786Z,94852.19
2023-04-01T14:19:35.078Z,94855.41
2023-04-01T14:21:30.711Z,94853.31
2023-04-01T14:22:56.364Z,94847.59
2023-04-01T14:27:15.185Z,94844.00
2023-04-01T14:29:01.731Z,94846.19
2023-04-01T14:38:30.614Z,94864.06
2023-04-01T14:40:19.912Z,94860.75
2023-04-01T14:45:08.581Z,94882.13
2023-04-01T14:46:52.441Z,94865.91
2023-04-01T14:48:40.714Z,94878.00
2023-04-01T14:49:53.352Z,94873.28
2023-04-01T14:51:06.100Z,94872.19
2023-04-01T14:52:18.767Z,94874.03
2023-04-01T14:53:29.397Z,94878.25
2023-04-01T14:54:38.281Z,94874.03
2023-04-01T14:55:51.365Z,94877.16
2023-04-01T14:57:09.272Z,94883.78
2023-04-01T14:58:14.421Z,94882.88
2023-04-01T14:59:30.345Z,94882.78
2023-04-01T15:00:58.046Z,94886.47
2023-04-01T15:02:11.247Z,94878.63
2023-04-01T15:03:24.656Z,94888.19
2023-04-01T15:04:44.656Z,94893.53
2023-04-01T15:05:52.996Z,94885.47
2023-04-01T15:07:11.113Z,94888.38
2023-04-01T15:08:22.908Z,94886.00
2023-04-01T15:09:40.328Z,94888.56
2023-04-01T15:11:24.663Z,94885.41
2023-04-01T15:12:31.960Z,94895.94
2023-04-01T15:14:07.574Z,94895.94
2023-04-01T15:15:40.054Z,94895.84
2023-04-01T15:16:56.545Z,94892.25
2023-04-01T15:18:12.378Z,94892.81
2023-04-01T15:19:33.706Z,94889.41
2023-04-01T15:20:55.758Z,94889.56
2023-04-01T15:22:31.662Z,94891.72
2023-04-01T15:23:48.376Z,94884.53
2023-04-01T15:25:07.098Z,94895.69
2023-04-01T15:26:35.875Z,94890.44
2023-04-01T15:31:33.629Z,94903.34
2023-04-01T15:32:54.665Z,94894.03
2023-04-01T15:34:27.355Z,94901.03
2023-04-01T15:35:43.859Z,94897.63
2023-04-01T15:36:57.478Z,94898.19
2023-04-01T15:38:07.973Z,94898.19
2023-04-01T15:39:21.667Z,94905.75
2023-04-01T15:40:32.752Z,94897.19
2023-04-01T15:45:44.407Z,94910.97
2023-04-01T15:46:49.119Z,94907.38
2023-04-01T15:48:03.554Z,94901.03
2023-04-01T15:49:16.290Z,94907.66
2023-04-01T15:50:50.780Z,94903.25
2023-04-01T15:52:11.733Z,94903.25
2023-04-01T15:53:37.292Z,94907.19
2023-04-01T15:55:05.030Z,94903.16
2023-04-01T15:56:23.165Z,94907.00
2023-04-01T15:57:41.246Z,94909.00
2023-04-01T15:58:52.896Z,94902.94
2023-04-01T16:00:00.168Z,94902.19
2023-04-01T16:01:18.596Z,94915.28
2023-04-01T16:02:32.361Z,94905.16
2023-04-01T16:03:44.523Z,94915.47
2023-04-01T16:04:57.871Z,94912.97
2023-04-01T16:06:38.935Z,94915.34
2023-04-01T16:08:01.583Z,94916.94
2023-04-01T16:09:22.761Z,94917.13
2023-04-01T16:10:51.400Z,94921.63
2023-04-01T16:12:05.847Z,94920.69
2023-04-01T16:13:26.452Z,94912.13
2023-04-01T16:14:44.036Z,94918.94
2023-04-01T16:15:58.607Z,94917.13
2023-04-01T16:17:17.011Z,94924.09
2023-04-01T16:18:42.983Z,94921.69
2023-04-01T16:19:56.904Z,94923.72
2023-04-01T16:21:26.366Z,94931.28
2023-04-01T16:22:39.161Z,94927.16
2023-04-01T16:23:49.747Z,94926.28
2023-04-01T16:25:00.178Z,94926.28
2023-04-01T16:26:09.243Z,94929.63